createdAt,value
2022-10-28T00:00:15.348Z,13.30
2022-10-28T00:05:51.193Z,13.30
2022-10-28T00:11:21.605Z,13.10
2022-10-28T00:16:44.608Z,13.10
2022-10-28T00:22:09.288Z,13.00
2022-10-28T00:27:27.312Z,13.00
2022-10-28T00:32:53.314Z,12.90
2022-10-28T00:38:03.495Z,12.90
2022-10-28T00:43:27.828Z,13.00
2022-10-28T00:48:43.068Z,13.00
2022-10-28T00:54:04.598Z,12.90
2022-10-28T00:59:18.802Z,12.90
2022-10-28T01:04:22.486Z,12.80
2022-10-28T01:09:33.482Z,12.80
2022-10-28T01:15:06.731Z,12.80
2022-10-28T01:20:27.489Z,12.80
2022-10-28T01:26:19.690Z,12.90
2022-10-28T01:32:17.387Z,12.90
2022-10-28T01:37:57.918Z,13.00
2022-10-28T01:43:25.079Z,13.00
2022-10-28T01:48:51.457Z,13.00
2022-10-28T01:53:58.382Z,13.20
2022-10-28T01:59:10.349Z,13.40
2022-10-28T02:04:35.128Z,13.40
2022-10-28T02:10:10.121Z,13.40
2022-10-28T02:15:30.770Z,13.50
2022-10-28T02:21:22.247Z,13.50
2022-10-28T02:27:12.496Z,13.60
2022-10-28T02:32:39.642Z,13.60
2022-10-28T02:37:59.307Z,13.60
2022-10-28T02:43:19.093Z,13.50
2022-10-28T02:48:57.140Z,13.60
2022-10-28T02:54:17.663Z,13.50
2022-10-28T02:59:20.612Z,13.50
2022-10-28T03:04:34.636Z,13.40
2022-10-28T03:09:37.675Z,13.40
2022-10-28T03:14:40.493Z,13.30
2022-10-28T03:19:43.212Z,13.20
2022-10-28T03:24:45.979Z,13.10
2022-10-28T03:29:48.733Z,13.10
2022-10-28T03:34:51.457Z,13.00
2022-10-28T03:39:54.264Z,13.00
2022-10-28T03:44:57.030Z,13.00
2022-10-28T03:49:59.764Z,13.10
2022-10-28T03:55:02.544Z,13.00
2022-10-28T04:00:06.250Z,13.00
2022-10-28T04:05:38.688Z,13.00
2022-10-28T04:10:52.816Z,12.80
2022-10-28T04:16:18.333Z,12.70
2022-10-28T04:21:27.129Z,12.70
2022-10-28T04:26:59.796Z,12.70
2022-10-28T04:32:18.944Z,12.70
2022-10-28T04:38:00.447Z,12.70
2022-10-28T04:43:20.333Z,12.70
2022-10-28T04:48:34.229Z,12.80
2022-10-28T04:53:45.847Z,12.80
2022-10-28T04:59:06.446Z,12.90
2022-10-28T05:04:31.811Z,12.90
2022-10-28T05:09:36.596Z,12.90
2022-10-28T05:14:39.362Z,12.80
2022-10-28T05:19:45.320Z,12.80
2022-10-28T05:24:48.071Z,12.90
2022-10-28T05:29:50.812Z,12.80
2022-10-28T05:34:53.543Z,12.80
2022-10-28T05:39:56.332Z,12.80
2022-10-28T05:44:59.093Z,12.60
2022-10-28T05:50:01.978Z,12.70
2022-10-28T05:55:05.611Z,12.70
2022-10-28T06:00:09.083Z,12.60
2022-10-28T06:05:18.819Z,12.60
2022-10-28T06:10:22.716Z,12.60
2022-10-28T06:15:24.056Z,12.70
2022-10-28T06:20:26.862Z,12.70
2022-10-28T06:25:29.652Z,12.80
2022-10-28T06:30:32.384Z,12.90
2022-10-28T06:35:35.133Z,12.90
2022-10-28T06:40:37.929Z,12.90
2022-10-28T06:45:40.752Z,13.00
2022-10-28T06:50:45.015Z,13.10
2022-10-28T06:56:13.034Z,13.20
2022-10-28T07:01:24.414Z,13.20
2022-10-28T07:06:36.499Z,13.40
2022-10-28T07:11:43.979Z,13.60
2022-10-28T07:23:00.774Z,14.10
2022-10-28T07:28:11.530Z,14.40
2022-10-28T07:33:25.595Z,14.50
2022-10-28T07:38:44.794Z,14.70
2022-10-28T07:43:59.407Z,15.00
2022-10-28T07:49:10.840Z,15.30
2022-10-28T07:54:20.070Z,15.50
2022-10-28T07:59:28.872Z,15.70
2022-10-28T08:04:46.495Z,16.00
2022-10-28T08:09:53.223Z,16.30
2022-10-28T08:14:56.408Z,16.50
2022-10-28T08:19:59.370Z,16.90
2022-10-28T08:25:02.203Z,17.20
2022-10-28T08:30:05.573Z,17.40
2022-10-28T08:35:17.208Z,17.60
2022-10-28T08:40:32.141Z,17.80
2022-10-28T08:45:55.783Z,18.00
2022-10-28T08:51:47.268Z,18.40
2022-10-28T08:57:02.679Z,18.70
2022-10-28T09:02:22.594Z,19.00
2022-10-28T09:07:31.744Z,19.20
2022-10-28T09:13:18.604Z,19.50
2022-10-28T09:19:05.403Z,19.80
2022-10-28T09:24:24.151Z,20.30
2022-10-28T09:29:44.300Z,20.90
2022-10-28T09:35:14.878Z,21.30
2022-10-28T09:40:27.715Z,21.50
2022-10-28T09:45:33.861Z,21.60
2022-10-28T09:50:36.717Z,21.70
2022-10-28T09:55:39.515Z,22.00
2022-10-28T10:00:42.421Z,22.40
2022-10-28T10:06:25.086Z,22.70
2022-10-28T10:11:56.780Z,22.80
2022-10-28T10:17:29.650Z,22.90
2022-10-28T10:22:39.557Z,23.10
2022-10-28T10:28:27.986Z,23.20
2022-10-28T10:33:44.301Z,23.20
2022-10-28T10:39:06.241Z,23.40
2022-10-28T10:44:22.794Z,23.50
2022-10-28T10:49:26.329Z,23.60
2022-10-28T10:54:32.105Z,23.70
2022-10-28T10:59:37.813Z,23.70
2022-10-28T11:05:08.451Z,23.70
2022-10-28T11:10:27.180Z,23.70
2022-10-28T11:15:32.042Z,23.80
2022-10-28T11:21:18.198Z,23.80
2022-10-28T11:26:27.972Z,23.80
2022-10-28T11:31:44.964Z,23.90
2022-10-28T11:37:16.669Z,24.00
2022-10-28T11:48:28.171Z,24.10
2022-10-28T11:53:55.292Z,24.50
2022-10-28T11:59:15.832Z,24.60
2022-10-28T12:05:04.622Z,24.80
2022-10-28T12:10:31.280Z,25.00
2022-10-28T12:16:05.858Z,25.00
2022-10-28T12:21:47.152Z,25.20
2022-10-28T12:27:22.465Z,25.60
2022-10-28T12:32:44.657Z,25.80
2022-10-28T12:38:23.946Z,26.00
2022-10-28T12:43:57.276Z,26.20
2022-10-28T12:49:21.385Z,26.30
2022-10-28T12:54:52.738Z,26.30
2022-10-28T13:00:17.365Z,26.10
2022-10-28T13:05:51.782Z,26.10
2022-10-28T13:11:34.564Z,26.20
2022-10-28T13:17:06.821Z,26.30
2022-10-28T13:22:23.935Z,26.30
2022-10-28T13:27:44.189Z,26.50
2022-10-28T13:33:28.960Z,26.60
2022-10-28T13:38:55.981Z,26.50
2022-10-28T13:44:19.591Z,26.30
2022-10-28T13:49:29.945Z,26.10
2022-10-28T13:54:39.913Z,25.70
2022-10-28T13:59:53.809Z,25.50
2022-10-28T14:05:18.468Z,25.20
2022-10-28T14:10:32.477Z,25.30
2022-10-28T14:15:40.687Z,24.90
2022-10-28T14:20:46.296Z,24.80
2022-10-28T14:26:22.234Z,24.20
2022-10-28T14:31:51.040Z,24.00
2022-10-28T14:37:49.516Z,24.00
2022-10-28T14:43:29.399Z,23.70
2022-10-28T14:49:01.048Z,23.40
2022-10-28T14:54:22.047Z,23.10
2022-10-28T14:59:29.054Z,23.10
2022-10-28T15:04:56.463Z,23.00
2022-10-28T15:10:19.485Z,22.90
2022-10-28T15:15:25.357Z,22.80
2022-10-28T15:20:31.803Z,22.60
2022-10-28T15:25:34.596Z,22.50
2022-10-28T15:30:46.475Z,22.20
2022-10-28T15:36:22.375Z,22.20
2022-10-28T15:41:51.820Z,22.10
2022-10-28T15:47:30.403Z,21.90
2022-10-28T15:53:28.824Z,21.80
2022-10-28T15:58:56.464Z,21.60
2022-10-28T16:04:32.690Z,21.40
2022-10-28T16:10:07.183Z,21.40
2022-10-28T16:15:14.759Z,21.20
2022-10-28T16:20:26.690Z,21.20
2022-10-28T16:25:29.509Z,21.10
2022-10-28T16:30:32.295Z,20.80
2022-10-28T16:35:35.185Z,20.70
2022-10-28T16:40:50.911Z,20.60
2022-10-28T16:52:10.606Z,20.60
2022-10-28T16:57:28.617Z,20.70
2022-10-28T17:03:04.131Z,20.50
2022-10-28T17:08:48.881Z,20.40
2022-10-28T17:14:00.473Z,20.30
2022-10-28T17:19:09.086Z,20.20
2022-10-28T17:24:25.586Z,20.00
2022-10-28T17:29:29.470Z,20.00
2022-10-28T17:34:32.277Z,19.70
2022-10-28T17:39:35.126Z,19.60
2022-10-28T17:44:38.016Z,19.60
2022-10-28T17:49:40.802Z,19.60
2022-10-28T17:54:43.669Z,19.50
2022-10-28T17:59:46.886Z,19.00
2022-10-28T18:05:08.306Z,18.80
2022-10-28T18:10:12.487Z,18.70
2022-10-28T18:15:15.366Z,18.50
2022-10-28T18:20:18.083Z,18.30
2022-10-28T18:25:20.835Z,18.20
2022-10-28T18:30:24.287Z,17.90
2022-10-28T18:35:28.398Z,17.70
2022-10-28T18:40:31.121Z,17.60
2022-10-28T18:45:33.878Z,17.50
2022-10-28T18:50:36.764Z,17.30
2022-10-28T18:55:39.586Z,17.30
2022-10-28T19:00:42.458Z,17.30
2022-10-28T19:06:03.689Z,17.30
2022-10-28T19:11:26.215Z,17.20
2022-10-28T19:16:40.290Z,17.20
2022-10-28T19:21:52.837Z,17.30
2022-10-28T19:27:13.278Z,17.30
2022-10-28T19:32:39.675Z,17.30
2022-10-28T19:38:02.888Z,17.30
2022-10-28T19:43:15.877Z,17.40
2022-10-28T19:48:29.622Z,17.50
2022-10-28T19:53:59.027Z,17.40
2022-10-28T19:59:13.654Z,17.50
2022-10-28T20:04:51.266Z,17.40
2022-10-28T20:09:54.675Z,17.30
2022-10-28T20:14:57.434Z,17.30
2022-10-28T20:20:00.183Z,17.20
2022-10-28T20:25:08.595Z,17.20
2022-10-28T20:30:12.121Z,17.30
2022-10-28T20:35:14.959Z,17.30
2022-10-28T20:40:17.742Z,17.00
2022-10-28T20:45:20.549Z,17.00
2022-10-28T20:50:23.323Z,17.00
2022-10-28T20:55:26.083Z,17.00
2022-10-28T21:00:28.910Z,17.10
2022-10-28T21:05:54.130Z,17.10
2022-10-28T21:11:21.327Z,17.10
2022-10-28T21:22:09.644Z,17.30
2022-10-28T21:27:44.193Z,17.20
2022-10-28T21:33:06.343Z,17.10
2022-10-28T21:38:19.257Z,17.00
2022-10-28T21:43:47.828Z,16.80
2022-10-28T21:49:05.546Z,16.80
2022-10-28T21:54:17.946Z,16.60
2022-10-28T21:59:30.986Z,16.40
2022-10-28T22:04:37.846Z,16.30
2022-10-28T22:09:51.654Z,16.30
2022-10-28T22:15:19.273Z,16.10
2022-10-28T22:20:56.261Z,16.10
2022-10-28T22:26:38.903Z,15.90
2022-10-28T22:32:02.895Z,16.00
2022-10-28T22:37:28.229Z,16.00
2022-10-28T22:42:56.057Z,16.10
2022-10-28T22:48:02.337Z,16.20
2022-10-28T22:58:57.717Z,16.50
2022-10-28T23:04:24.562Z,16.70
2022-10-28T23:09:40.381Z,16.80
2022-10-28T23:14:43.082Z,17.20
2022-10-28T23:19:45.856Z,17.40
2022-10-28T23:24:48.563Z,17.60
2022-10-28T23:29:51.315Z,17.70
2022-10-28T23:34:54.021Z,17.80
2022-10-28T23:39:56.860Z,17.90
2022-10-28T23:44:59.707Z,18.00
2022-10-28T23:50:02.612Z,18.10
2022-10-28T23:55:06.448Z,18.10
